Time;durP1;ratioP1;P1;durP2;ratioP2;P2;SDS_P1;SDS_P2;PMS_P1;PMS_P2;Temp;Humidity;BMP_temperature;BMP_pressure;BME280_temperature;BME280_humidity;BME280_pressure;Samples;Min_cycle;Max_cycle;Signal;HPM_P1;HPM_P2
2023/07/28 00:01:25;;;;;;;2.92;2.80;;;19.00;99.90;;;;;;4777429;30;20467;-83
2023/07/28 00:03:51;;;;;;;2.88;2.78;;;19.20;99.90;;;;;;4777029;29;20054;-84
2023/07/28 00:06:16;;;;;;;3.28;3.08;;;18.80;99.90;;;;;;4775468;30;20414;-83
2023/07/28 00:08:42;;;;;;;3.00;2.88;;;18.80;99.90;;;;;;4776852;30;20070;-83
2023/07/28 00:11:14;;;;;;;3.10;2.97;;;19.00;99.90;;;;;;4777526;30;20403;-85
2023/07/28 00:13:41;;;;;;;3.33;3.13;;;18.70;99.90;;;;;;4776170;30;20477;-83
2023/07/28 00:16:07;;;;;;;3.28;3.08;;;19.20;99.90;;;;;;4775949;30;20105;-84
2023/07/28 00:18:33;;;;;;;3.55;3.35;;;18.30;99.90;;;;;;4777092;30;20066;-83
2023/07/28 00:20:58;;;;;;;3.55;3.35;;;18.20;99.90;;;;;;4776378;30;20055;-85
2023/07/28 00:23:24;;;;;;;3.63;3.42;;;18.70;99.90;;;;;;4776539;30;20565;-84
2023/07/28 00:25:51;;;;;;;3.38;3.17;;;18.80;99.90;;;;;;4776196;29;20048;-84
2023/07/28 00:28:17;;;;;;;3.60;3.40;;;18.90;99.90;;;;;;4777130;29;20138;-84
2023/07/28 00:30:42;;;;;;;3.30;3.10;;;18.30;99.90;;;;;;4775513;30;20157;-85
2023/07/28 00:33:08;;;;;;;3.40;3.20;;;18.50;99.90;;;;;;4774611;30;20052;-84
2023/07/28 00:35:33;;;;;;;3.78;3.58;;;19.10;99.90;;;;;;4776016;30;20058;-82
2023/07/28 00:37:59;;;;;;;4.07;3.88;;;18.20;99.90;;;;;;4776297;30;20051;-84
2023/07/28 00:40:25;;;;;;;3.75;3.55;;;18.20;99.90;;;;;;4776769;30;20120;-83
2023/07/28 00:42:50;;;;;;;3.70;3.50;;;18.40;99.90;;;;;;4776592;30;20051;-85
2023/07/28 00:45:16;;;;;;;3.65;3.45;;;18.60;99.90;;;;;;4778526;29;20062;-86
2023/07/28 00:47:42;;;;;;;3.78;3.58;;;18.60;99.90;;;;;;4778984;29;20059;-86
2023/07/28 00:50:14;;;;;;;3.85;3.65;;;18.20;99.90;;;;;;4779218;29;20059;-84
2023/07/28 00:52:40;;;;;;;3.80;3.60;;;18.30;99.90;;;;;;4794214;29;20055;-85
2023/07/28 00:55:06;;;;;;;4.25;4.05;;;18.40;99.90;;;;;;4779634;30;20563;-85
2023/07/28 00:57:38;;;;;;;3.60;3.40;;;18.60;99.90;;;;;;4777552;30;20075;-85
2023/07/28 01:00:05;;;;;;;3.67;3.47;;;19.00;99.90;;;;;;4789506;29;20051;-86
2023/07/28 01:02:31;;;;;;;3.85;3.65;;;18.80;99.90;;;;;;4769404;30;20379;-87
2023/07/28 01:04:57;;;;;;;4.15;3.95;;;19.10;99.90;;;;;;4777902;29;20054;-87
2023/07/28 01:07:47;;;;;;;3.67;3.47;;;18.30;99.90;;;;;;4778484;29;20086;-87
2023/07/28 01:10:26;;;;;;;4.40;4.20;;;18.50;99.90;;;;;;4791666;29;20751;-86
2023/07/28 01:12:51;;;;;;;3.75;3.55;;;18.50;99.90;;;;;;4780074;30;20082;-86
2023/07/28 01:15:17;;;;;;;3.90;3.70;;;19.10;99.90;;;;;;4762503;30;20070;-87
2023/07/28 01:17:43;;;;;;;3.80;3.60;;;19.00;99.90;;;;;;4780345;29;20063;-86
2023/07/28 01:20:10;;;;;;;3.65;3.45;;;18.40;99.90;;;;;;4777652;29;20205;-87
2023/07/28 01:22:57;;;;;;;3.85;3.65;;;19.20;99.90;;;;;;4761918;30;20126;-86
2023/07/28 01:26:07;;;;;;;4.00;3.80;;;18.20;99.90;;;;;;4778083;29;20063;-90
2023/07/28 01:28:34;;;;;;;3.72;3.53;;;18.80;99.90;;;;;;4765958;30;20242;-88
2023/07/28 01:31:05;;;;;;;3.90;3.70;;;19.10;99.90;;;;;;4779935;29;20050;-87
2023/07/28 01:33:31;;;;;;;4.45;4.25;;;18.90;99.90;;;;;;4775866;29;20051;-86
2023/07/28 01:35:58;;;;;;;4.35;4.15;;;19.00;99.90;;;;;;4793793;29;20108;-87
2023/07/28 01:38:24;;;;;;;3.90;3.70;;;18.70;99.90;;;;;;4777204;29;20074;-88
2023/07/28 01:40:49;;;;;;;4.13;3.92;;;18.90;99.90;;;;;;4764069;30;20039;-87
2023/07/28 01:43:16;;;;;;;3.58;3.38;;;19.10;99.90;;;;;;4761711;30;20459;-89
2023/07/28 01:45:42;;;;;;;3.58;3.38;;;18.80;99.90;;;;;;4777735;30;20543;-85
2023/07/28 01:48:10;;;;;;;3.60;3.40;;;19.20;99.90;;;;;;4781167;30;20043;-88
2023/07/28 01:50:37;;;;;;;3.28;3.10;;;18.50;99.90;;;;;;4781414;30;20195;-87
2023/07/28 01:53:05;;;;;;;3.65;3.45;;;18.60;99.90;;;;;;4778694;30;20062;-88
2023/07/28 01:55:31;;;;;;;3.45;3.25;;;18.70;99.90;;;;;;4764484;29;20063;-89
2023/07/28 01:58:01;;;;;;;3.13;3.00;;;19.10;99.90;;;;;;4761243;30;20141;-89
2023/07/28 02:00:27;;;;;;;3.13;3.03;;;19.10;99.90;;;;;;4764501;30;20106;-89
2023/07/28 02:02:54;;;;;;;2.85;2.75;;;19.00;99.90;;;;;;4765128;30;20083;-91
2023/07/28 02:05:20;;;;;;;2.67;2.58;;;18.90;99.90;;;;;;4762946;30;20047;-90
2023/07/28 02:07:45;;;;;;;2.58;2.47;;;19.00;99.90;;;;;;4777229;30;20055;-88
2023/07/28 02:10:11;;;;;;;3.05;2.95;;;18.40;99.90;;;;;;4779939;30;20047;-89
2023/07/28 02:12:38;;;;;;;2.78;2.67;;;18.70;99.90;;;;;;4764132;30;20509;-87
2023/07/28 02:15:05;;;;;;;2.72;2.63;;;19.20;99.90;;;;;;4765553;30;20071;-91
2023/07/28 02:17:30;;;;;;;3.10;3.00;;;18.60;99.90;;;;;;4779089;29;20138;-89
2023/07/28 02:19:56;;;;;;;3.38;3.17;;;18.90;99.90;;;;;;4780373;30;20131;-89
2023/07/28 02:22:22;;;;;;;2.88;2.78;;;19.20;99.90;;;;;;4777468;30;20142;-89
2023/07/28 02:24:47;;;;;;;3.17;3.08;;;18.30;99.90;;;;;;4777210;30;20117;-89
2023/07/28 02:27:13;;;;;;;3.03;2.92;;;18.20;99.90;;;;;;4765983;30;20564;-91
2023/07/28 02:29:38;;;;;;;2.90;2.80;;;18.30;99.90;;;;;;4778581;30;20046;-89
2023/07/28 02:32:05;;;;;;;2.92;2.83;;;19.20;99.90;;;;;;4765442;30;20460;-93
2023/07/28 02:34:30;;;;;;;3.25;3.08;;;18.20;99.90;;;;;;4766164;30;20087;-89
2023/07/28 02:37:02;;;;;;;2.97;2.88;;;18.60;99.90;;;;;;4762253;30;20131;-88
2023/07/28 02:39:28;;;;;;;2.97;2.88;;;19.20;99.90;;;;;;4780269;29;20047;-89
2023/07/28 02:41:54;;;;;;;2.72;2.63;;;19.10;99.90;;;;;;4761990;30;20059;-88
2023/07/28 02:44:20;;;;;;;2.80;2.70;;;19.10;99.90;;;;;;4764835;30;20043;-89
2023/07/28 02:46:45;;;;;;;2.85;2.75;;;18.50;99.90;;;;;;4761696;30;20127;-88
2023/07/28 02:49:11;;;;;;;2.80;2.70;;;19.20;99.90;;;;;;4774922;29;20082;-87
2023/07/28 02:51:36;;;;;;;3.20;3.05;;;19.00;99.90;;;;;;4775400;30;20055;-86
2023/07/28 02:54:03;;;;;;;2.80;2.70;;;18.40;99.90;;;;;;4762801;30;20059;-83
2023/07/28 02:56:29;;;;;;;2.95;2.85;;;18.70;99.90;;;;;;4778405;30;20085;-88
2023/07/28 02:58:55;;;;;;;3.03;2.90;;;18.60;99.90;;;;;;4776613;29;20047;-87
2023/07/28 03:01:20;;;;;;;2.85;2.75;;;18.40;99.90;;;;;;4777327;30;20115;-88
2023/07/28 03:03:47;;;;;;;2.75;2.65;;;19.30;99.90;;;;;;4777122;29;20107;-87
2023/07/28 03:06:13;;;;;;;2.95;2.85;;;18.40;99.90;;;;;;4776622;29;20048;-91
2023/07/28 03:08:38;;;;;;;2.55;2.45;;;18.30;99.90;;;;;;4778181;29;20054;-86
2023/07/28 03:11:04;;;;;;;3.20;3.08;;;19.20;99.90;;;;;;4778623;30;20047;-87
2023/07/28 03:13:29;;;;;;;3.35;3.17;;;19.00;99.90;;;;;;4776623;29;20414;-87
2023/07/28 03:15:55;;;;;;;2.58;2.47;;;18.50;99.90;;;;;;4777606;29;20465;-87
2023/07/28 03:18:21;;;;;;;2.65;2.55;;;18.90;99.90;;;;;;4777832;30;20043;-86
2023/07/28 03:20:47;;;;;;;2.95;2.85;;;19.00;99.90;;;;;;4774528;29;20662;-86
2023/07/28 03:23:13;;;;;;;2.67;2.58;;;18.30;99.90;;;;;;4763681;29;20545;-89
2023/07/28 03:25:39;;;;;;;2.75;2.65;;;18.30;99.90;;;;;;4775842;30;20059;-87
2023/07/28 03:28:05;;;;;;;2.80;2.70;;;18.80;99.90;;;;;;4778217;29;20071;-87
2023/07/28 03:30:30;;;;;;;2.65;2.55;;;19.10;99.90;;;;;;4762905;30;20059;-87
2023/07/28 03:32:56;;;;;;;3.08;2.95;;;18.60;99.90;;;;;;4775890;30;20047;-87
2023/07/28 03:35:22;;;;;;;2.88;2.78;;;19.00;99.90;;;;;;4778367;29;20047;-87
2023/07/28 03:37:48;;;;;;;3.15;3.03;;;18.80;99.90;;;;;;4776712;30;20108;-85
2023/07/28 03:40:14;;;;;;;2.63;2.53;;;18.90;99.90;;;;;;4792638;29;20047;-86
2023/07/28 03:42:39;;;;;;;2.88;2.78;;;18.50;99.90;;;;;;4776424;29;20555;-85
2023/07/28 03:45:07;;;;;;;2.75;2.65;;;19.00;99.90;;;;;;4778907;30;20055;-89
2023/07/28 03:47:33;;;;;;;2.92;2.83;;;18.60;99.90;;;;;;4763832;30;20097;-86
2023/07/28 03:49:58;;;;;;;3.20;3.05;;;19.20;99.90;;;;;;4775987;30;20490;-88
2023/07/28 03:52:24;;;;;;;3.00;2.90;;;18.50;99.90;;;;;;4778668;30;20049;-86
2023/07/28 03:54:50;;;;;;;2.78;2.67;;;18.60;99.90;;;;;;4763579;30;20051;-87
2023/07/28 03:57:15;;;;;;;2.78;2.67;;;18.80;99.90;;;;;;4777211;29;20078;-87
2023/07/28 03:59:41;;;;;;;2.95;2.85;;;18.50;99.90;;;;;;4776592;29;20128;-87
2023/07/28 04:02:06;;;;;;;2.88;2.78;;;18.60;99.90;;;;;;4777536;29;20085;-86
2023/07/28 04:04:32;;;;;;;2.90;2.80;;;19.00;99.90;;;;;;4777245;30;20059;-85
2023/07/28 04:06:58;;;;;;;3.33;3.15;;;18.80;99.90;;;;;;4777950;29;20055;-84
2023/07/28 04:09:23;;;;;;;3.17;3.05;;;18.90;99.90;;;;;;4776971;30;20059;-85
2023/07/28 04:11:49;;;;;;;3.17;3.05;;;19.20;99.90;;;;;;4772880;29;20059;-84
2023/07/28 04:14:15;;;;;;;3.35;3.15;;;18.50;99.90;;;;;;4776798;30;20562;-87
2023/07/28 04:16:41;;;;;;;3.10;2.97;;;18.60;99.90;;;;;;4756470;30;20043;-85
2023/07/28 04:19:06;;;;;;;3.55;3.35;;;19.10;99.90;;;;;;4776369;30;20051;-88
2023/07/28 04:21:32;;;;;;;3.20;3.08;;;18.60;99.90;;;;;;4775194;30;20546;-84
2023/07/28 04:23:57;;;;;;;3.38;3.22;;;18.70;99.90;;;;;;4770655;30;20055;-86
2023/07/28 04:26:24;;;;;;;3.05;2.95;;;18.70;99.90;;;;;;4776069;30;20086;-86
2023/07/28 04:28:50;;;;;;;3.72;3.53;;;19.00;99.90;;;;;;4774203;30;20786;-87
2023/07/28 04:31:16;;;;;;;3.20;3.05;;;19.10;99.90;;;;;;4790698;29;20146;-87
2023/07/28 04:33:42;;;;;;;3.60;3.40;;;19.20;99.90;;;;;;4776653;29;20079;-85
2023/07/28 04:36:08;;;;;;;3.20;3.05;;;18.50;99.90;;;;;;4775224;30;20094;-83
2023/07/28 04:38:34;;;;;;;3.55;3.35;;;18.50;99.90;;;;;;4776865;30;20130;-85
2023/07/28 04:41:00;;;;;;;3.30;3.15;;;18.70;99.90;;;;;;4770637;30;20043;-85
2023/07/28 04:43:26;;;;;;;3.50;3.30;;;18.50;99.90;;;;;;4774274;30;20063;-85
2023/07/28 04:45:51;;;;;;;3.00;2.90;;;19.00;99.90;;;;;;4759187;29;20117;-87
2023/07/28 04:48:17;;;;;;;3.72;3.53;;;19.30;99.90;;;;;;4773431;29;20134;-85
2023/07/28 04:50:44;;;;;;;3.38;3.20;;;19.20;99.90;;;;;;4773175;30;20460;-83
2023/07/28 04:53:10;;;;;;;3.60;3.40;;;18.50;99.90;;;;;;4770799;30;20056;-84
2023/07/28 04:55:36;;;;;;;3.55;3.35;;;18.60;99.90;;;;;;4771446;30;20054;-87
2023/07/28 04:58:01;;;;;;;3.22;3.08;;;18.50;99.90;;;;;;4772640;29;20786;-85
2023/07/28 05:00:27;;;;;;;2.97;2.88;;;18.60;99.90;;;;;;4772847;29;20467;-86
2023/07/28 05:02:53;;;;;;;3.03;2.92;;;18.80;99.90;;;;;;4773137;29;20055;-86
2023/07/28 05:05:18;;;;;;;3.38;3.17;;;19.30;99.90;;;;;;4776180;29;20055;-86
2023/07/28 05:07:44;;;;;;;3.05;2.95;;;18.60;99.90;;;;;;4774535;30;20070;-86
2023/07/28 05:10:10;;;;;;;2.97;2.88;;;19.00;99.90;;;;;;4792592;29;20054;-85
2023/07/28 05:12:35;;;;;;;3.13;3.00;;;18.60;99.90;;;;;;4760614;30;20139;-87
2023/07/28 05:15:01;;;;;;;3.08;2.97;;;18.70;99.90;;;;;;4792679;29;20051;-87
2023/07/28 05:17:27;;;;;;;3.25;3.05;;;18.90;99.90;;;;;;4792313;29;20043;-84
2023/07/28 05:19:52;;;;;;;2.80;2.70;;;18.90;99.90;;;;;;4775579;30;20066;-85
2023/07/28 05:22:18;;;;;;;2.78;2.67;;;18.90;99.90;;;;;;4777449;30;20048;-85
2023/07/28 05:24:45;;;;;;;3.10;2.97;;;19.30;99.90;;;;;;4776059;29;20147;-83
2023/07/28 05:27:11;;;;;;;2.90;2.80;;;19.40;99.90;;;;;;4791921;29;20043;-86
2023/07/28 05:29:37;;;;;;;3.15;2.95;;;18.70;99.90;;;;;;4777412;29;20047;-84
2023/07/28 05:32:03;;;;;;;2.97;2.88;;;18.70;99.90;;;;;;4779104;29;20055;-84
2023/07/28 05:34:29;;;;;;;2.58;2.47;;;19.10;99.90;;;;;;4780815;29;20537;-83
2023/07/28 05:36:55;;;;;;;2.78;2.67;;;19.50;99.90;;;;;;4780591;30;20051;-83
2023/07/28 05:39:21;;;;;;;3.05;2.95;;;18.80;99.90;;;;;;4781232;30;20051;-87
2023/07/28 05:41:46;;;;;;;2.85;2.75;;;19.20;99.90;;;;;;4793653;29;20083;-86
2023/07/28 05:44:12;;;;;;;2.90;2.80;;;19.00;99.90;;;;;;4780948;29;20059;-84
2023/07/28 05:46:38;;;;;;;2.83;2.72;;;18.80;99.90;;;;;;4781545;30;20108;-86
2023/07/28 05:49:04;;;;;;;2.83;2.72;;;19.00;99.90;;;;;;4780575;30;20764;-87
2023/07/28 05:51:30;;;;;;;2.70;2.60;;;19.30;99.90;;;;;;4780028;29;20055;-88
2023/07/28 05:53:56;;;;;;;2.67;2.58;;;18.90;99.90;;;;;;4780937;29;20506;-87
2023/07/28 05:56:22;;;;;;;2.58;2.47;;;19.50;99.90;;;;;;4780471;30;20399;-84
2023/07/28 05:58:49;;;;;;;2.72;2.63;;;18.90;99.90;;;;;;4780376;30;20139;-85
2023/07/28 06:01:14;;;;;;;2.40;2.30;;;19.00;99.90;;;;;;4765662;30;20055;-85
2023/07/28 06:03:40;;;;;;;2.40;2.30;;;19.50;99.90;;;;;;4780125;29;20051;-84
2023/07/28 06:06:05;;;;;;;2.60;2.50;;;19.50;99.90;;;;;;4765087;30;20070;-85
2023/07/28 06:08:31;;;;;;;2.70;2.60;;;19.30;99.90;;;;;;4779930;30;20063;-87
2023/07/28 06:10:57;;;;;;;2.60;2.50;;;19.50;99.90;;;;;;4781146;30;20047;-87
2023/07/28 06:13:22;;;;;;;2.60;2.50;;;19.00;99.90;;;;;;4780419;30;20397;-88
2023/07/28 06:15:48;;;;;;;2.60;2.50;;;19.60;99.90;;;;;;4780887;30;20104;-86
2023/07/28 06:18:14;;;;;;;2.60;2.50;;;19.10;99.90;;;;;;4777569;30;20058;-87
2023/07/28 06:20:43;;;;;;;2.50;2.40;;;19.70;99.90;;;;;;4766562;30;20043;-84
2023/07/28 06:23:09;;;;;;;2.72;2.63;;;19.20;99.90;;;;;;4777487;29;20066;-84
2023/07/28 06:25:37;;;;;;;2.60;2.50;;;19.30;99.90;;;;;;4780039;30;20055;-85
2023/07/28 06:28:03;;;;;;;2.70;2.60;;;19.50;99.90;;;;;;4778963;30;20059;-85
2023/07/28 06:30:30;;;;;;;2.40;2.30;;;19.30;99.90;;;;;;4765429;30;20104;-87
2023/07/28 06:32:56;;;;;;;2.50;2.40;;;19.90;99.90;;;;;;4778124;30;20059;-87
2023/07/28 06:35:22;;;;;;;2.40;2.30;;;19.60;99.90;;;;;;4780266;30;20194;-87
2023/07/28 06:37:48;;;;;;;2.35;2.25;;;19.60;99.90;;;;;;4779931;30;20058;-85
2023/07/28 06:40:14;;;;;;;2.40;2.30;;;19.70;99.90;;;;;;4779484;30;20055;-84
2023/07/28 06:42:40;;;;;;;2.47;2.38;;;20.10;99.90;;;;;;4778667;29;20067;-85
2023/07/28 06:45:06;;;;;;;2.55;2.45;;;19.70;99.90;;;;;;4779433;30;20143;-86
2023/07/28 06:47:31;;;;;;;2.78;2.67;;;20.20;99.90;;;;;;4779181;30;20051;-84
2023/07/28 06:49:57;;;;;;;2.25;2.15;;;20.30;99.90;;;;;;4780720;30;20050;-85
2023/07/28 06:52:23;;;;;;;2.25;2.15;;;20.40;99.90;;;;;;4777996;30;20051;-85
2023/07/28 06:54:49;;;;;;;2.33;2.22;;;20.00;99.90;;;;;;4779828;30;20138;-86
2023/07/28 06:57:15;;;;;;;2.33;2.22;;;20.30;99.90;;;;;;4778552;30;20043;-84
2023/07/28 06:59:42;;;;;;;2.25;2.15;;;20.30;99.90;;;;;;4791773;29;20525;-88
2023/07/28 07:02:08;;;;;;;2.10;2.00;;;20.30;99.90;;;;;;4776358;30;20055;-85
2023/07/28 07:04:34;;;;;;;2.00;1.90;;;20.20;99.90;;;;;;4768239;30;20055;-84
2023/07/28 07:07:00;;;;;;;1.98;1.88;;;20.30;99.90;;;;;;4779829;30;20638;-86
2023/07/28 07:09:25;;;;;;;1.95;1.85;;;20.90;99.90;;;;;;4778958;30;20089;-85
2023/07/28 07:11:51;;;;;;;2.05;1.95;;;20.90;99.90;;;;;;4776486;30;20047;-84
2023/07/28 07:14:17;;;;;;;2.00;1.90;;;21.30;99.90;;;;;;4764451;30;20104;-87
2023/07/28 07:16:43;;;;;;;2.00;1.90;;;21.90;99.90;;;;;;4775901;30;20763;-84
2023/07/28 07:19:08;;;;;;;1.67;1.58;;;21.60;99.90;;;;;;4777750;30;20059;-86
2023/07/28 07:21:34;;;;;;;1.90;1.80;;;21.80;99.90;;;;;;4778984;30;20569;-85
2023/07/28 07:24:02;;;;;;;2.10;2.00;;;21.70;99.90;;;;;;4778192;30;20039;-88
2023/07/28 07:26:27;;;;;;;2.08;1.98;;;21.50;99.90;;;;;;4763558;30;20075;-86
2023/07/28 07:28:53;;;;;;;2.35;2.25;;;21.40;99.90;;;;;;4778698;30;20743;-86
2023/07/28 07:31:19;;;;;;;2.05;1.95;;;21.10;99.90;;;;;;4779536;30;20059;-86
2023/07/28 07:33:44;;;;;;;2.55;2.45;;;21.00;99.90;;;;;;4764505;30;20134;-88
2023/07/28 07:36:14;;;;;;;1.90;1.80;;;20.90;99.90;;;;;;4777316;30;20517;-86
2023/07/28 07:38:45;;;;;;;2.15;2.05;;;20.90;99.90;;;;;;4777361;30;20077;-86
2023/07/28 07:41:12;;;;;;;1.98;1.88;;;20.90;99.90;;;;;;4778155;29;20079;-89
2023/07/28 07:43:38;;;;;;;1.65;1.55;;;20.80;99.90;;;;;;4779334;30;20146;-87
2023/07/28 07:46:04;;;;;;;1.67;1.58;;;20.80;99.90;;;;;;4778802;30;20082;-87
2023/07/28 07:48:30;;;;;;;1.92;1.83;;;20.80;99.90;;;;;;4779799;30;20144;-88
2023/07/28 07:50:56;;;;;;;1.88;1.77;;;20.90;99.90;;;;;;4778405;30;20066;-89
2023/07/28 07:53:21;;;;;;;2.10;2.00;;;21.00;99.90;;;;;;4764188;30;20140;-88
2023/07/28 07:55:48;;;;;;;1.90;1.80;;;21.00;99.90;;;;;;4778790;29;20048;-89
2023/07/28 07:58:14;;;;;;;1.95;1.85;;;20.90;99.90;;;;;;4780960;30;20051;-90
2023/07/28 08:00:40;;;;;;;1.42;1.38;;;21.00;99.90;;;;;;4764731;30;20112;-90
2023/07/28 08:03:05;;;;;;;2.00;1.90;;;21.20;99.90;;;;;;4773264;29;20055;-88
2023/07/28 08:05:31;;;;;;;2.10;2.00;;;21.30;99.90;;;;;;4760681;30;20058;-88
2023/07/28 08:07:58;;;;;;;1.70;1.60;;;21.40;99.90;;;;;;4757321;30;20760;-89
2023/07/28 08:10:23;;;;;;;1.88;1.77;;;21.40;99.90;;;;;;4773465;30;20051;-90
2023/07/28 08:12:49;;;;;;;1.80;1.70;;;21.40;99.90;;;;;;4773846;29;20446;-87
2023/07/28 08:15:15;;;;;;;2.00;1.90;;;21.40;99.90;;;;;;4772610;30;20054;-88
2023/07/28 08:17:41;;;;;;;1.77;1.67;;;21.60;99.90;;;;;;4773215;30;20047;-89
2023/07/28 08:20:07;;;;;;;1.60;1.50;;;22.00;99.90;;;;;;4791923;29;20581;-90
2023/07/28 08:22:33;;;;;;;1.70;1.60;;;22.20;99.90;;;;;;4778219;30;20047;-88
2023/07/28 08:24:59;;;;;;;1.33;1.33;;;22.40;99.90;;;;;;4777452;29;20059;-92
2023/07/28 08:27:25;;;;;;;1.23;1.23;;;22.50;99.90;;;;;;4761422;30;20054;-87
2023/07/28 08:29:51;;;;;;;1.13;1.13;;;22.90;99.90;;;;;;4777685;30;20566;-87
2023/07/28 08:32:17;;;;;;;1.00;1.00;;;23.10;99.90;;;;;;4772177;29;20059;-86
2023/07/28 08:34:42;;;;;;;0.85;0.85;;;23.10;99.90;;;;;;4761312;30;20150;-88
2023/07/28 08:37:08;;;;;;;0.75;0.75;;;22.90;99.90;;;;;;4772291;30;20044;-86
2023/07/28 08:39:34;;;;;;;0.77;0.77;;;23.00;99.90;;;;;;4780630;29;20047;-89
2023/07/28 08:42:03;;;;;;;0.50;0.50;;;22.90;99.90;;;;;;4762156;30;20156;-90
2023/07/28 08:44:33;;;;;;;0.77;0.77;;;22.80;99.90;;;;;;4777448;30;20081;-85
2023/07/28 08:47:00;;;;;;;0.70;0.70;;;22.60;99.90;;;;;;4778853;29;20074;-87
2023/07/28 08:49:26;;;;;;;0.80;0.80;;;22.80;99.90;;;;;;4763578;30;20063;-85
2023/07/28 08:51:57;;;;;;;0.70;0.70;;;22.70;99.90;;;;;;4775306;29;20054;-85
2023/07/28 08:54:22;;;;;;;0.73;0.73;;;22.80;99.90;;;;;;4777025;30;20134;-88
2023/07/28 08:56:48;;;;;;;0.88;0.88;;;22.80;99.90;;;;;;4775208;29;20134;-88
2023/07/28 08:59:26;;;;;;;0.75;0.75;;;23.00;99.90;;;;;;4791284;29;20067;-88
2023/07/28 09:01:54;;;;;;;0.82;0.82;;;23.00;99.90;;;;;;4776313;29;20051;-86
2023/07/28 09:04:20;;;;;;;0.50;0.50;;;23.00;99.90;;;;;;4776853;30;20146;-88
2023/07/28 09:06:49;;;;;;;0.77;0.77;;;23.00;99.90;;;;;;4780129;29;20055;-87
2023/07/28 09:09:16;;;;;;;0.70;0.70;;;23.20;99.90;;;;;;4798211;29;20758;-87
2023/07/28 09:11:48;;;;;;;0.68;0.68;;;23.00;99.90;;;;;;4781536;29;20116;-88
2023/07/28 09:14:16;;;;;;;0.75;0.75;;;23.30;99.90;;;;;;4795822;29;20099;-87
2023/07/28 09:16:45;;;;;;;0.70;0.70;;;23.10;99.90;;;;;;4781401;29;20529;-89
2023/07/28 09:19:11;;;;;;;0.85;0.85;;;22.80;99.90;;;;;;4767376;30;20051;-88
2023/07/28 09:21:43;;;;;;;0.30;0.30;;;22.70;99.90;;;;;;4780208;30;20089;-86
2023/07/28 09:24:12;;;;;;;0.80;0.80;;;22.70;99.90;;;;;;4775517;30;20055;-86
2023/07/28 09:26:47;;;;;;;0.82;0.82;;;22.60;99.90;;;;;;4793311;29;20055;-87
2023/07/28 09:29:19;;;;;;;0.95;0.95;;;22.60;99.90;;;;;;4762085;29;20067;-86
2023/07/28 09:31:47;;;;;;;0.88;0.88;;;22.80;99.90;;;;;;4779310;29;20055;-86
2023/07/28 09:34:23;;;;;;;0.80;0.80;;;22.80;99.90;;;;;;4778110;30;20081;-87
2023/07/28 09:36:49;;;;;;;0.90;0.90;;;22.90;99.90;;;;;;4765941;30;20072;-88
2023/07/28 09:39:14;;;;;;;0.82;0.82;;;22.90;99.90;;;;;;4780025;30;20075;-88
2023/07/28 09:41:40;;;;;;;0.93;0.93;;;22.80;99.90;;;;;;4775638;29;20085;-89
2023/07/28 09:44:06;;;;;;;0.70;0.70;;;22.60;99.90;;;;;;4763945;30;20051;-86
2023/07/28 09:46:38;;;;;;;0.80;0.80;;;22.60;99.90;;;;;;4778778;30;20142;-86
2023/07/28 09:49:12;;;;;;;1.00;1.00;;;22.70;99.90;;;;;;4777964;30;20055;-86
2023/07/28 09:51:40;;;;;;;;;;;22.90;99.90;;;;;;4779214;30;20047;-85
2023/07/28 09:54:12;;;;;;;0.90;0.90;;;23.30;99.90;;;;;;4792570;29;19925;-86
2023/07/28 09:56:39;;;;;;;0.85;0.85;;;23.80;99.90;;;;;;4778506;30;20083;-86
2023/07/28 09:59:12;;;;;;;0.50;0.50;;;23.90;99.90;;;;;;4781663;30;20126;-86
2023/07/28 10:01:39;;;;;;;0.98;0.98;;;23.70;99.90;;;;;;4780084;30;20514;-86
2023/07/28 10:04:05;;;;;;;0.70;0.70;;;23.90;99.90;;;;;;4780101;30;20051;-89
2023/07/28 10:06:33;;;;;;;0.40;0.40;;;24.10;99.90;;;;;;4779152;30;20063;-88
2023/07/28 10:08:59;;;;;;;0.80;0.80;;;24.20;99.90;;;;;;4779720;30;20142;-89
2023/07/28 10:11:26;;;;;;;0.30;0.30;;;24.20;99.90;;;;;;4780848;30;20062;-87
2023/07/28 10:13:54;;;;;;;0.68;0.68;;;24.00;99.90;;;;;;4778270;29;20056;-89
2023/07/28 10:16:29;;;;;;;1.08;1.08;;;23.80;99.90;;;;;;4778715;29;20047;-87
2023/07/28 10:18:55;;;;;;;0.28;0.28;;;23.80;99.90;;;;;;4763550;30;20049;-85
2023/07/28 10:21:20;;;;;;;0.40;0.40;;;23.80;99.90;;;;;;4780752;29;20543;-89
2023/07/28 10:23:57;;;;;;;1.02;1.02;;;23.80;99.90;;;;;;4765228;30;20058;-90
2023/07/28 10:26:36;;;;;;;0.30;0.30;;;23.70;99.90;;;;;;4765736;30;20055;-86
2023/07/28 10:29:11;;;;;;;0.30;0.30;;;23.80;99.90;;;;;;4780027;29;20057;-88
2023/07/28 10:31:37;;;;;;;0.70;0.70;;;24.40;99.90;;;;;;4780812;30;20051;-86
2023/07/28 10:34:03;;;;;;;0.30;0.30;;;24.20;99.90;;;;;;4778427;29;20070;-87
2023/07/28 10:36:29;;;;;;;0.30;0.30;;;24.60;99.90;;;;;;4776598;29;20395;-85
2023/07/28 10:39:16;;;;;;;0.30;0.30;;;25.20;99.90;;;;;;4778688;30;20085;-83
2023/07/28 10:42:08;;;;;;;0.30;0.30;;;25.60;99.90;;;;;;4777217;30;20059;-87
2023/07/28 10:44:34;;;;;;;0.30;0.30;;;25.70;99.90;;;;;;4761171;30;20085;-89
2023/07/28 10:47:01;;;;;;;0.30;0.30;;;25.60;99.90;;;;;;4778680;30;20732;-86
2023/07/28 10:49:28;;;;;;;0.20;0.20;;;25.20;99.90;;;;;;4779649;30;20051;-89
2023/07/28 10:51:53;;;;;;;0.38;0.38;;;24.90;99.90;;;;;;4778176;30;20066;-88
2023/07/28 10:54:22;;;;;;;0.35;0.35;;;24.70;99.90;;;;;;4777281;30;20059;-89
2023/07/28 10:56:48;;;;;;;0.30;0.30;;;24.60;99.90;;;;;;4778073;30;20111;-87
2023/07/28 10:59:15;;;;;;;0.30;0.30;;;24.20;99.90;;;;;;4778245;29;20062;-87
2023/07/28 11:01:42;;;;;;;0.30;0.30;;;24.20;99.90;;;;;;4778427;30;20052;-87
2023/07/28 11:04:09;;;;;;;0.30;0.30;;;24.50;99.90;;;;;;4778827;30;20059;-86
2023/07/28 11:06:35;;;;;;;0.30;0.30;;;24.60;99.90;;;;;;4779645;29;20055;-86
2023/07/28 11:09:00;;;;;;;0.40;0.40;;;24.60;99.90;;;;;;4762413;30;20058;-87
2023/07/28 11:11:27;;;;;;;0.30;0.30;;;24.90;99.90;;;;;;4778256;30;20062;-87
2023/07/28 11:13:56;;;;;;;0.30;0.30;;;25.20;99.90;;;;;;4776235;30;20052;-85
2023/07/28 11:16:22;;;;;;;0.30;0.30;;;24.80;99.90;;;;;;4778747;29;20065;-86
2023/07/28 11:18:47;;;;;;;0.30;0.30;;;24.80;99.90;;;;;;4776447;29;20066;-85
2023/07/28 11:21:17;;;;;;;0.30;0.30;;;24.50;99.90;;;;;;4777326;30;20414;-86
2023/07/28 11:23:45;;;;;;;0.30;0.30;;;24.30;99.90;;;;;;4777651;30;20119;-86
2023/07/28 11:26:11;;;;;;;0.30;0.30;;;24.10;99.90;;;;;;4760663;30;20051;-87
2023/07/28 11:28:38;;;;;;;0.30;0.30;;;23.90;99.90;;;;;;4780621;29;20054;-88
2023/07/28 11:31:04;;;;;;;0.30;0.30;;;24.20;99.90;;;;;;4794713;29;20047;-88
2023/07/28 11:33:30;;;;;;;0.40;0.40;;;24.10;99.90;;;;;;4780188;30;20043;-87
2023/07/28 11:35:56;;;;;;;0.40;0.40;;;23.90;99.90;;;;;;4764165;30;20093;-88
2023/07/28 11:38:22;;;;;;;0.30;0.30;;;23.70;99.90;;;;;;4778632;30;20077;-90
2023/07/28 11:40:49;;;;;;;2.13;2.03;;;23.50;99.90;;;;;;4764737;30;20055;-89
2023/07/28 11:43:15;;;;;;;0.30;0.30;;;23.20;99.90;;;;;;4779088;30;20442;-88
2023/07/28 11:45:40;;;;;;;0.30;0.30;;;23.00;99.90;;;;;;4780037;30;20115;-87
2023/07/28 11:48:07;;;;;;;2.30;2.20;;;22.90;99.90;;;;;;4792350;29;20082;-87
2023/07/28 11:50:43;;;;;;;1.50;1.45;;;22.80;99.90;;;;;;4760496;30;20387;-87
2023/07/28 11:53:11;;;;;;;1.35;1.35;;;22.70;99.90;;;;;;4779039;30;20062;-88
2023/07/28 11:55:38;;;;;;;0.40;0.40;;;22.80;99.90;;;;;;4778953;30;20459;-87
2023/07/28 11:58:06;;;;;;;0.80;0.80;;;22.60;99.90;;;;;;4779222;30;21750;-90
2023/07/28 12:00:36;;;;;;;1.15;1.15;;;22.60;99.90;;;;;;4778315;30;20137;-89
2023/07/28 12:03:10;;;;;;;0.40;0.40;;;23.60;99.90;;;;;;4772507;30;20055;-88
2023/07/28 12:05:37;;;;;;;1.75;1.65;;;24.10;99.90;;;;;;4762454;30;20047;-88
2023/07/28 12:08:03;;;;;;;1.20;1.20;;;24.30;99.90;;;;;;4776803;30;20074;-89
2023/07/28 12:10:31;;;;;;;0.40;0.40;;;24.70;99.90;;;;;;4762131;30;20139;-87
2023/07/28 12:13:03;;;;;;;0.30;0.30;;;25.10;99.90;;;;;;4776539;30;20479;-86
2023/07/28 12:15:31;;;;;;;0.30;0.30;;;24.80;99.90;;;;;;4775304;30;20548;-88
2023/07/28 12:18:16;;;;;;;0.30;0.30;;;24.60;99.90;;;;;;4761665;30;20070;-88
2023/07/28 12:20:47;;;;;;;0.93;0.90;;;25.00;99.90;;;;;;4773932;30;20052;-87
2023/07/28 12:23:21;;;;;;;0.30;0.30;;;25.30;99.90;;;;;;4762801;30;20082;-87
2023/07/28 12:25:47;;;;;;;0.30;0.30;;;25.40;99.90;;;;;;4791557;29;20070;-87
2023/07/28 12:28:13;;;;;;;0.30;0.30;;;25.70;99.90;;;;;;4778855;30;20055;-86
2023/07/28 12:30:39;;;;;;;0.30;0.30;;;25.80;99.90;;;;;;4775137;29;20055;-86
2023/07/28 12:33:06;;;;;;;0.30;0.30;;;26.10;99.90;;;;;;4777261;29;20047;-88
2023/07/28 12:35:34;;;;;;;0.30;0.30;;;26.10;99.90;;;;;;4779634;30;20047;-86
2023/07/28 12:38:01;;;;;;;0.40;0.40;;;25.90;99.90;;;;;;4763857;30;20190;-86
2023/07/28 12:40:30;;;;;;;0.40;0.40;;;26.00;99.90;;;;;;4780145;29;20051;-86
2023/07/28 12:42:57;;;;;;;0.30;0.30;;;26.20;99.90;;;;;;4766918;30;20081;-89
2023/07/28 12:45:25;;;;;;;0.30;0.30;;;26.70;99.90;;;;;;4766711;30;20047;-86
2023/07/28 12:47:53;;;;;;;0.30;0.30;;;26.60;99.90;;;;;;4778826;30;20063;-87